sensor_id;sensor_type;location;lat;lon;timestamp;pressure;altitude;pressure_sealevel;temperature;humidity
53522;BME280;39398;48.382;9.802;2023-12-04T00:01:21;93896.16;;;-10.04;82.88
53522;BME280;39398;48.382;9.802;2023-12-04T00:06:25;93892.22;;;-10.08;82.78
53522;BME280;39398;48.382;9.802;2023-12-04T00:11:27;93880.69;;;-9.80;82.65
53522;BME280;39398;48.382;9.802;2023-12-04T00:16:33;93875.91;;;-9.24;84.25
53522;BME280;39398;48.382;9.802;2023-12-04T00:21:36;93871.44;;;-9.64;82.30
53522;BME280;39398;48.382;9.802;2023-12-04T00:26:38;93870.56;;;-9.33;83.38
53522;BME280;39398;48.382;9.802;2023-12-04T00:31:40;93857.31;;;-8.63;86.21
53522;BME280;39398;48.382;9.802;2023-12-04T00:36:43;93854.22;;;-8.96;81.32
53522;BME280;39398;48.382;9.802;2023-12-04T00:41:44;93836.25;;;-8.48;84.21
53522;BME280;39398;48.382;9.802;2023-12-04T00:46:46;93826.22;;;-8.06;85.65
53522;BME280;39398;48.382;9.802;2023-12-04T00:51:49;93827.16;;;-8.93;80.75
53522;BME280;39398;48.382;9.802;2023-12-04T00:56:51;93810.81;;;-8.57;82.21
53522;BME280;39398;48.382;9.802;2023-12-04T01:01:52;93806.78;;;-9.04;80.90
53522;BME280;39398;48.382;9.802;2023-12-04T01:06:55;93814.47;;;-9.65;80.12
53522;BME280;39398;48.382;9.802;2023-12-04T01:11:57;93813.50;;;-9.78;80.79
53522;BME280;39398;48.382;9.802;2023-12-04T01:16:59;93808.88;;;-9.86;81.13
53522;BME280;39398;48.382;9.802;2023-12-04T01:22:02;93812.38;;;-9.13;85.49
53522;BME280;39398;48.382;9.802;2023-12-04T01:27:04;93804.91;;;-8.86;82.24
53522;BME280;39398;48.382;9.802;2023-12-04T01:32:06;93791.13;;;-9.53;81.20
53522;BME280;39398;48.382;9.802;2023-12-04T01:37:09;93801.00;;;-9.80;81.06
53522;BME280;39398;48.382;9.802;2023-12-04T01:42:10;93787.19;;;-9.57;82.55
53522;BME280;39398;48.382;9.802;2023-12-04T01:47:12;93789.22;;;-9.34;81.81
53522;BME280;39398;48.382;9.802;2023-12-04T01:52:15;93781.34;;;-9.13;81.44
53522;BME280;39398;48.382;9.802;2023-12-04T01:57:18;93776.63;;;-9.20;81.46
53522;BME280;39398;48.382;9.802;2023-12-04T02:02:20;93784.66;;;-9.13;80.01
53522;BME280;39398;48.382;9.802;2023-12-04T02:07:23;93787.09;;;-9.26;79.24
53522;BME280;39398;48.382;9.802;2023-12-04T02:12:25;93782.50;;;-9.79;78.87
53522;BME280;39398;48.382;9.802;2023-12-04T02:17:27;93786.06;;;-10.44;77.79
53522;BME280;39398;48.382;9.802;2023-12-04T02:22:31;93785.94;;;-10.90;79.61
53522;BME280;39398;48.382;9.802;2023-12-04T02:27:40;93777.28;;;-11.17;80.99
53522;BME280;39398;48.382;9.802;2023-12-04T02:32:46;93776.53;;;-11.19;81.35
53522;BME280;39398;48.382;9.802;2023-12-04T02:37:49;93780.59;;;-10.84;81.68
53522;BME280;39398;48.382;9.802;2023-12-04T02:42:52;93775.75;;;-10.55;80.98
53522;BME280;39398;48.382;9.802;2023-12-04T02:47:54;93770.78;;;-11.39;81.93
53522;BME280;39398;48.382;9.802;2023-12-04T02:52:55;93761.50;;;-11.37;81.84
53522;BME280;39398;48.382;9.802;2023-12-04T02:57:58;93756.00;;;-11.60;82.40
53522;BME280;39398;48.382;9.802;2023-12-04T03:03:00;93761.75;;;-11.58;82.62
53522;BME280;39398;48.382;9.802;2023-12-04T03:08:02;93747.06;;;-11.66;84.06
53522;BME280;39398;48.382;9.802;2023-12-04T03:13:05;93741.69;;;-11.58;83.90
53522;BME280;39398;48.382;9.802;2023-12-04T03:18:07;93724.22;;;-10.78;83.93
53522;BME280;39398;48.382;9.802;2023-12-04T03:23:12;93716.47;;;-10.74;82.37
53522;BME280;39398;48.382;9.802;2023-12-04T03:28:15;93712.06;;;-10.54;83.31
53522;BME280;39398;48.382;9.802;2023-12-04T03:33:17;93723.13;;;-10.57;82.80
53522;BME280;39398;48.382;9.802;2023-12-04T03:38:19;93715.50;;;-10.10;83.51
53522;BME280;39398;48.382;9.802;2023-12-04T03:43:22;93699.00;;;-10.00;82.43
53522;BME280;39398;48.382;9.802;2023-12-04T03:48:23;93683.41;;;-9.91;80.85
53522;BME280;39398;48.382;9.802;2023-12-04T03:53:26;93672.41;;;-10.04;79.94
53522;BME280;39398;48.382;9.802;2023-12-04T03:58:29;93662.50;;;-11.14;81.63
53522;BME280;39398;48.382;9.802;2023-12-04T04:03:31;93659.41;;;-11.03;81.51
53522;BME280;39398;48.382;9.802;2023-12-04T04:08:32;93661.84;;;-10.54;82.47
53522;BME280;39398;48.382;9.802;2023-12-04T04:13:36;93659.38;;;-10.25;83.12
53522;BME280;39398;48.382;9.802;2023-12-04T04:18:37;93662.94;;;-10.14;82.40
53522;BME280;39398;48.382;9.802;2023-12-04T04:23:39;93657.00;;;-9.83;83.55
53522;BME280;39398;48.382;9.802;2023-12-04T04:28:42;93664.25;;;-9.63;83.09
53522;BME280;39398;48.382;9.802;2023-12-04T04:33:43;93657.94;;;-9.70;82.64
53522;BME280;39398;48.382;9.802;2023-12-04T04:38:45;93661.78;;;-9.79;82.45
53522;BME280;39398;48.382;9.802;2023-12-04T04:43:48;93664.97;;;-9.47;83.17
53522;BME280;39398;48.382;9.802;2023-12-04T04:48:50;93657.09;;;-9.85;83.48
53522;BME280;39398;48.382;9.802;2023-12-04T04:53:52;93662.78;;;-9.81;83.22
53522;BME280;39398;48.382;9.802;2023-12-04T04:58:55;93659.84;;;-9.74;82.33
53522;BME280;39398;48.382;9.802;2023-12-04T05:03:56;93654.50;;;-9.83;82.52
53522;BME280;39398;48.382;9.802;2023-12-04T05:08:58;93647.84;;;-9.84;83.09
53522;BME280;39398;48.382;9.802;2023-12-04T05:14:01;93638.09;;;-9.46;83.88
53522;BME280;39398;48.382;9.802;2023-12-04T05:19:02;93633.31;;;-9.37;81.05
53522;BME280;39398;48.382;9.802;2023-12-04T05:24:05;93632.00;;;-9.28;81.28
53522;BME280;39398;48.382;9.802;2023-12-04T05:29:08;93612.66;;;-9.28;80.23
53522;BME280;39398;48.382;9.802;2023-12-04T05:34:09;93618.94;;;-9.21;79.57
53522;BME280;39398;48.382;9.802;2023-12-04T05:39:11;93611.75;;;-9.12;79.88
53522;BME280;39398;48.382;9.802;2023-12-04T05:44:14;93605.97;;;-9.00;79.86
53522;BME280;39398;48.382;9.802;2023-12-04T05:49:16;93600.00;;;-8.85;79.90
53522;BME280;39398;48.382;9.802;2023-12-04T05:54:18;93594.94;;;-9.12;78.30
53522;BME280;39398;48.382;9.802;2023-12-04T05:59:21;93591.84;;;-9.72;77.21
53522;BME280;39398;48.382;9.802;2023-12-04T06:04:22;93589.50;;;-9.75;78.61
53522;BME280;39398;48.382;9.802;2023-12-04T06:09:24;93588.41;;;-9.71;78.15
53522;BME280;39398;48.382;9.802;2023-12-04T06:14:27;93598.72;;;-9.33;82.36
53522;BME280;39398;48.382;9.802;2023-12-04T06:19:28;93585.41;;;-9.35;80.81
53522;BME280;39398;48.382;9.802;2023-12-04T06:24:30;93568.00;;;-9.38;80.58
53522;BME280;39398;48.382;9.802;2023-12-04T06:29:34;93561.75;;;-9.19;80.07
53522;BME280;39398;48.382;9.802;2023-12-04T06:34:36;93557.63;;;-9.05;80.33
53522;BME280;39398;48.382;9.802;2023-12-04T06:39:40;93553.81;;;-8.98;81.57
53522;BME280;39398;48.382;9.802;2023-12-04T06:44:44;93551.47;;;-9.01;79.15
53522;BME280;39398;48.382;9.802;2023-12-04T06:49:45;93549.94;;;-9.04;78.40
53522;BME280;39398;48.382;9.802;2023-12-04T06:54:47;93538.28;;;-9.19;78.57
53522;BME280;39398;48.382;9.802;2023-12-04T06:59:50;93529.94;;;-9.20;78.05
53522;BME280;39398;48.382;9.802;2023-12-04T07:04:52;93534.03;;;-9.04;79.75
53522;BME280;39398;48.382;9.802;2023-12-04T07:09:53;93521.78;;;-8.96;79.70
53522;BME280;39398;48.382;9.802;2023-12-04T07:14:57;93521.00;;;-8.84;79.17
53522;BME280;39398;48.382;9.802;2023-12-04T07:19:59;93519.59;;;-8.88;78.66
53522;BME280;39398;48.382;9.802;2023-12-04T07:25:01;93509.75;;;-9.32;77.53
53522;BME280;39398;48.382;9.802;2023-12-04T07:30:05;93518.59;;;-9.12;79.91
53522;BME280;39398;48.382;9.802;2023-12-04T07:35:07;93531.66;;;-8.93;80.19
53522;BME280;39398;48.382;9.802;2023-12-04T07:40:09;93526.94;;;-9.12;78.39
53522;BME280;39398;48.382;9.802;2023-12-04T07:45:12;93524.16;;;-9.07;79.36
53522;BME280;39398;48.382;9.802;2023-12-04T07:50:14;93528.19;;;-8.78;79.66
53522;BME280;39398;48.382;9.802;2023-12-04T07:55:16;93519.13;;;-9.07;77.98
53522;BME280;39398;48.382;9.802;2023-12-04T08:00:20;93504.44;;;-8.61;78.50
53522;BME280;39398;48.382;9.802;2023-12-04T08:05:21;93485.81;;;-8.59;77.57
53522;BME280;39398;48.382;9.802;2023-12-04T08:10:23;93481.59;;;-8.46;77.21
53522;BME280;39398;48.382;9.802;2023-12-04T08:15:26;93486.19;;;-8.65;77.04
53522;BME280;39398;48.382;9.802;2023-12-04T08:20:28;93514.03;;;-8.28;79.22
53522;BME280;39398;48.382;9.802;2023-12-04T08:25:40;93487.91;;;-8.53;78.29
53522;BME280;39398;48.382;9.802;2023-12-04T08:30:43;93491.16;;;-8.51;77.96
53522;BME280;39398;48.382;9.802;2023-12-04T08:35:45;93495.66;;;-8.68;78.12
53522;BME280;39398;48.382;9.802;2023-12-04T08:40:49;93501.81;;;-8.72;78.28
53522;BME280;39398;48.382;9.802;2023-12-04T08:45:52;93495.38;;;-8.64;78.21
53522;BME280;39398;48.382;9.802;2023-12-04T08:50:53;93465.03;;;-8.24;77.59
53522;BME280;39398;48.382;9.802;2023-12-04T08:55:55;93460.16;;;-8.02;77.96
53522;BME280;39398;48.382;9.802;2023-12-04T09:00:58;93464.03;;;-8.09;77.79
53522;BME280;39398;48.382;9.802;2023-12-04T09:06:00;93450.81;;;-8.13;78.53
53522;BME280;39398;48.382;9.802;2023-12-04T09:11:02;93460.38;;;-7.92;79.28
53522;BME280;39398;48.382;9.802;2023-12-04T09:16:23;93464.56;;;-7.67;78.00
53522;BME280;39398;48.382;9.802;2023-12-04T09:21:25;93467.78;;;-7.65;76.77
53522;BME280;39398;48.382;9.802;2023-12-04T09:26:26;93477.50;;;-7.85;77.42
53522;BME280;39398;48.382;9.802;2023-12-04T09:31:30;93488.22;;;-7.81;78.52
53522;BME280;39398;48.382;9.802;2023-12-04T09:36:32;93477.94;;;-7.91;78.08
53522;BME280;39398;48.382;9.802;2023-12-04T09:41:36;93494.06;;;-8.19;78.22
53522;BME280;39398;48.382;9.802;2023-12-04T09:46:40;93470.88;;;-7.98;77.54
53522;BME280;39398;48.382;9.802;2023-12-04T09:51:42;93470.13;;;-7.26;76.99
53522;BME280;39398;48.382;9.802;2023-12-04T09:56:43;93463.53;;;-7.52;76.35
53522;BME280;39398;48.382;9.802;2023-12-04T10:01:46;93451.75;;;-7.28;77.31
53522;BME280;39398;48.382;9.802;2023-12-04T10:06:49;93445.38;;;-7.21;77.13
53522;BME280;39398;48.382;9.802;2023-12-04T10:11:52;93433.34;;;-6.82;75.31
53522;BME280;39398;48.382;9.802;2023-12-04T10:16:55;93437.38;;;-6.34;76.71
53522;BME280;39398;48.382;9.802;2023-12-04T10:21:57;93413.69;;;-6.44;73.75
53522;BME280;39398;48.382;9.802;2023-12-04T10:27:00;93404.28;;;-6.08;76.23
53522;BME280;39398;48.382;9.802;2023-12-04T10:32:03;93388.16;;;-6.18;76.38
53522;BME280;39398;48.382;9.802;2023-12-04T10:37:05;93374.97;;;-5.88;77.07
53522;BME280;39398;48.382;9.802;2023-12-04T10:42:06;93385.34;;;-5.59;78.20
53522;BME280;39398;48.382;9.802;2023-12-04T10:47:09;93374.91;;;-5.77;75.74
53522;BME280;39398;48.382;9.802;2023-12-04T10:52:12;93356.06;;;-5.52;76.68
53522;BME280;39398;48.382;9.802;2023-12-04T10:57:18;93342.38;;;-5.18;76.52
53522;BME280;39398;48.382;9.802;2023-12-04T11:02:26;93333.06;;;-4.97;77.11
53522;BME280;39398;48.382;9.802;2023-12-04T11:07:29;93325.34;;;-4.74;78.71
53522;BME280;39398;48.382;9.802;2023-12-04T11:12:57;93300.47;;;-4.29;77.28
53522;BME280;39398;48.382;9.802;2023-12-04T11:18:03;93296.03;;;-4.06;76.74
53522;BME280;39398;48.382;9.802;2023-12-04T11:23:06;93287.09;;;-3.91;76.75
53522;BME280;39398;48.382;9.802;2023-12-04T11:28:08;93284.69;;;-4.02;74.75
53522;BME280;39398;48.382;9.802;2023-12-04T11:33:12;93293.75;;;-4.09;76.06
53522;BME280;39398;48.382;9.802;2023-12-04T11:38:14;93265.38;;;-4.24;76.03
53522;BME280;39398;48.382;9.802;2023-12-04T11:43:24;93271.06;;;-5.13;78.11
53522;BME280;39398;48.382;9.802;2023-12-04T11:48:28;93279.63;;;-5.46;76.86
53522;BME280;39398;48.382;9.802;2023-12-04T11:53:29;93285.59;;;-6.11;78.02
53522;BME280;39398;48.382;9.802;2023-12-04T11:58:31;93276.09;;;-6.30;78.75
53522;BME280;39398;48.382;9.802;2023-12-04T12:03:34;93257.69;;;-6.32;78.90
53522;BME280;39398;48.382;9.802;2023-12-04T12:08:37;93285.63;;;-6.22;78.93
53522;BME280;39398;48.382;9.802;2023-12-04T12:13:40;93269.31;;;-6.52;79.78
53522;BME280;39398;48.382;9.802;2023-12-04T12:18:43;93260.34;;;-6.89;80.12
53522;BME280;39398;48.382;9.802;2023-12-04T12:23:46;93262.78;;;-6.88;80.29
53522;BME280;39398;48.382;9.802;2023-12-04T12:28:47;93277.34;;;-6.69;80.10
53522;BME280;39398;48.382;9.802;2023-12-04T12:33:50;93266.13;;;-6.54;79.37
53522;BME280;39398;48.382;9.802;2023-12-04T12:38:53;93248.09;;;-5.42;79.92
53522;BME280;39398;48.382;9.802;2023-12-04T12:43:55;93237.69;;;-4.67;78.70
53522;BME280;39398;48.382;9.802;2023-12-04T12:48:58;93221.38;;;-4.44;76.92
53522;BME280;39398;48.382;9.802;2023-12-04T12:54:00;93210.31;;;-4.33;76.81
53522;BME280;39398;48.382;9.802;2023-12-04T12:59:02;93208.25;;;-3.99;77.45
53522;BME280;39398;48.382;9.802;2023-12-04T13:04:05;93220.00;;;-3.98;75.79
53522;BME280;39398;48.382;9.802;2023-12-04T13:09:07;93209.25;;;-4.40;75.57
53522;BME280;39398;48.382;9.802;2023-12-04T13:14:08;93202.94;;;-4.46;74.75
53522;BME280;39398;48.382;9.802;2023-12-04T13:19:12;93196.25;;;-4.47;75.24
53522;BME280;39398;48.382;9.802;2023-12-04T13:24:13;93194.81;;;-5.10;78.09
53522;BME280;39398;48.382;9.802;2023-12-04T13:29:15;93186.00;;;-5.57;78.88
53522;BME280;39398;48.382;9.802;2023-12-04T13:34:18;93186.72;;;-5.67;79.21
53522;BME280;39398;48.382;9.802;2023-12-04T13:39:20;93195.50;;;-5.91;78.49
53522;BME280;39398;48.382;9.802;2023-12-04T13:44:21;93182.75;;;-6.01;79.25
53522;BME280;39398;48.382;9.802;2023-12-04T13:49:24;93177.63;;;-6.11;80.09
53522;BME280;39398;48.382;9.802;2023-12-04T13:54:26;93166.41;;;-5.76;80.66
53522;BME280;39398;48.382;9.802;2023-12-04T13:59:27;93169.44;;;-5.62;80.88
53522;BME280;39398;48.382;9.802;2023-12-04T14:04:30;93159.28;;;-5.82;80.35
53522;BME280;39398;48.382;9.802;2023-12-04T14:09:32;93140.19;;;-5.96;80.44
53522;BME280;39398;48.382;9.802;2023-12-04T14:14:34;93136.34;;;-6.11;80.62
53522;BME280;39398;48.382;9.802;2023-12-04T14:19:37;93136.00;;;-6.18;81.20
53522;BME280;39398;48.382;9.802;2023-12-04T14:24:39;93129.72;;;-6.03;81.44
53522;BME280;39398;48.382;9.802;2023-12-04T14:29:40;93131.19;;;-5.89;81.79
53522;BME280;39398;48.382;9.802;2023-12-04T14:34:43;93141.72;;;-5.63;81.48
53522;BME280;39398;48.382;9.802;2023-12-04T14:39:45;93132.69;;;-5.56;81.45
53522;BME280;39398;48.382;9.802;2023-12-04T14:44:46;93124.66;;;-5.40;83.06
53522;BME280;39398;48.382;9.802;2023-12-04T14:49:51;93109.13;;;-5.56;81.85
53522;BME280;39398;48.382;9.802;2023-12-04T14:54:52;93112.13;;;-5.63;82.01
53522;BME280;39398;48.382;9.802;2023-12-04T14:59:54;93110.16;;;-5.80;82.47
53522;BME280;39398;48.382;9.802;2023-12-04T15:04:57;93103.00;;;-5.75;82.49
53522;BME280;39398;48.382;9.802;2023-12-04T15:10:01;93117.88;;;-5.60;82.63
53522;BME280;39398;48.382;9.802;2023-12-04T15:15:03;93115.91;;;-5.57;82.64
53522;BME280;39398;48.382;9.802;2023-12-04T15:20:07;93128.94;;;-5.62;81.81
53522;BME280;39398;48.382;9.802;2023-12-04T15:25:09;93121.88;;;-5.79;82.35
53522;BME280;39398;48.382;9.802;2023-12-04T15:30:10;93111.66;;;-5.98;81.81
53522;BME280;39398;48.382;9.802;2023-12-04T15:35:13;93093.03;;;-5.97;82.06
53522;BME280;39398;48.382;9.802;2023-12-04T15:40:15;93092.53;;;-5.91;82.89
53522;BME280;39398;48.382;9.802;2023-12-04T15:45:17;93085.91;;;-5.82;82.75
53522;BME280;39398;48.382;9.802;2023-12-04T15:50:20;93070.47;;;-5.79;82.04
53522;BME280;39398;48.382;9.802;2023-12-04T15:55:21;93075.94;;;-5.53;82.33
53522;BME280;39398;48.382;9.802;2023-12-04T16:00:24;93076.28;;;-5.37;82.63
53522;BME280;39398;48.382;9.802;2023-12-04T16:05:27;93081.88;;;-5.64;82.07
53522;BME280;39398;48.382;9.802;2023-12-04T16:10:29;93070.13;;;-5.44;83.23
53522;BME280;39398;48.382;9.802;2023-12-04T16:15:31;93054.63;;;-5.20;83.44
53522;BME280;39398;48.382;9.802;2023-12-04T16:20:34;93055.19;;;-5.07;83.12
53522;BME280;39398;48.382;9.802;2023-12-04T16:25:36;93040.78;;;-4.97;83.52
53522;BME280;39398;48.382;9.802;2023-12-04T16:30:37;93045.94;;;-5.18;83.38
53522;BME280;39398;48.382;9.802;2023-12-04T16:35:40;93041.41;;;-5.24;83.62
53522;BME280;39398;48.382;9.802;2023-12-04T16:40:42;93055.34;;;-5.39;84.15
53522;BME280;39398;48.382;9.802;2023-12-04T16:45:44;93047.47;;;-5.36;83.50
53522;BME280;39398;48.382;9.802;2023-12-04T16:50:47;93045.47;;;-5.42;83.08
53522;BME280;39398;48.382;9.802;2023-12-04T16:55:48;93034.91;;;-5.47;84.02
53522;BME280;39398;48.382;9.802;2023-12-04T17:00:50;93035.44;;;-5.53;84.21
53522;BME280;39398;48.382;9.802;2023-12-04T17:05:53;93029.72;;;-5.46;84.20
53522;BME280;39398;48.382;9.802;2023-12-04T17:10:55;93000.44;;;-5.29;83.02
53522;BME280;39398;48.382;9.802;2023-12-04T17:15:57;93025.88;;;-5.40;83.65
53522;BME280;39398;48.382;9.802;2023-12-04T17:21:00;93034.41;;;-5.41;83.49
53522;BME280;39398;48.382;9.802;2023-12-04T17:26:01;93038.63;;;-5.51;83.46
53522;BME280;39398;48.382;9.802;2023-12-04T17:31:03;93022.56;;;-5.31;83.88
53522;BME280;39398;48.382;9.802;2023-12-04T17:36:07;93016.16;;;-5.35;83.74
53522;BME280;39398;48.382;9.802;2023-12-04T17:41:10;93013.91;;;-5.29;84.18
53522;BME280;39398;48.382;9.802;2023-12-04T17:46:11;92999.50;;;-5.28;83.23
53522;BME280;39398;48.382;9.802;2023-12-04T17:51:17;92984.56;;;-5.31;83.70
53522;BME280;39398;48.382;9.802;2023-12-04T17:56:19;92991.28;;;-5.11;83.54
53522;BME280;39398;48.382;9.802;2023-12-04T18:01:20;92985.56;;;-4.94;83.99
53522;BME280;39398;48.382;9.802;2023-12-04T18:06:27;92964.78;;;-4.87;83.67
53522;BME280;39398;48.382;9.802;2023-12-04T18:11:29;92959.31;;;-4.73;83.47
53522;BME280;39398;48.382;9.802;2023-12-04T18:16:30;92949.97;;;-4.63;83.56
53522;BME280;39398;48.382;9.802;2023-12-04T18:21:33;92943.56;;;-4.58;83.58
53522;BME280;39398;48.382;9.802;2023-12-04T18:26:36;92945.41;;;-4.40;83.51
53522;BME280;39398;48.382;9.802;2023-12-04T18:31:38;92941.41;;;-4.43;82.23
53522;BME280;39398;48.382;9.802;2023-12-04T18:36:42;92927.75;;;-4.32;83.30
53522;BME280;39398;48.382;9.802;2023-12-04T18:41:44;92921.91;;;-4.52;83.06
53522;BME280;39398;48.382;9.802;2023-12-04T18:46:47;92919.81;;;-5.24;84.24
53522;BME280;39398;48.382;9.802;2023-12-04T18:51:54;92908.09;;;-4.86;82.93
53522;BME280;39398;48.382;9.802;2023-12-04T18:56:56;92900.19;;;-4.74;84.48
53522;BME280;39398;48.382;9.802;2023-12-04T19:01:58;92896.84;;;-4.65;84.44
53522;BME280;39398;48.382;9.802;2023-12-04T19:07:01;92895.38;;;-4.67;84.64
53522;BME280;39398;48.382;9.802;2023-12-04T19:12:03;92890.03;;;-4.54;84.01
53522;BME280;39398;48.382;9.802;2023-12-04T19:17:05;92890.16;;;-4.56;83.19
53522;BME280;39398;48.382;9.802;2023-12-04T19:22:08;92896.59;;;-4.90;82.09
53522;BME280;39398;48.382;9.802;2023-12-04T19:27:09;92890.84;;;-4.73;82.49
53522;BME280;39398;48.382;9.802;2023-12-04T19:32:11;92891.66;;;-5.02;82.41
53522;BME280;39398;48.382;9.802;2023-12-04T19:37:16;92889.66;;;-5.17;83.17
53522;BME280;39398;48.382;9.802;2023-12-04T19:42:18;92879.81;;;-4.92;83.20
53522;BME280;39398;48.382;9.802;2023-12-04T19:47:20;92878.19;;;-4.93;83.03
53522;BME280;39398;48.382;9.802;2023-12-04T19:52:22;92870.31;;;-4.70;83.49
53522;BME280;39398;48.382;9.802;2023-12-04T19:57:24;92865.63;;;-4.65;84.38
53522;BME280;39398;48.382;9.802;2023-12-04T20:02:26;92865.84;;;-4.49;84.05
53522;BME280;39398;48.382;9.802;2023-12-04T20:07:29;92859.59;;;-4.54;83.51
53522;BME280;39398;48.382;9.802;2023-12-04T20:12:31;92869.13;;;-5.05;83.62
53522;BME280;39398;48.382;9.802;2023-12-04T20:17:32;92870.31;;;-5.47;85.72
53522;BME280;39398;48.382;9.802;2023-12-04T20:22:35;92874.72;;;-5.40;84.93
53522;BME280;39398;48.382;9.802;2023-12-04T20:27:37;92853.94;;;-5.05;84.21
53522;BME280;39398;48.382;9.802;2023-12-04T20:32:39;92861.13;;;-4.90;84.79
53522;BME280;39398;48.382;9.802;2023-12-04T20:37:42;92859.78;;;-4.75;84.32
53522;BME280;39398;48.382;9.802;2023-12-04T20:42:43;92864.31;;;-4.69;84.01
53522;BME280;39398;48.382;9.802;2023-12-04T20:47:45;92868.06;;;-4.93;84.48
53522;BME280;39398;48.382;9.802;2023-12-04T20:52:48;92859.53;;;-4.92;84.16
53522;BME280;39398;48.382;9.802;2023-12-04T20:57:50;92853.38;;;-4.99;84.38
53522;BME280;39398;48.382;9.802;2023-12-04T21:02:52;92856.84;;;-4.80;84.11
53522;BME280;39398;48.382;9.802;2023-12-04T21:07:54;92854.16;;;-4.69;83.66
53522;BME280;39398;48.382;9.802;2023-12-04T21:12:56;92852.56;;;-4.70;84.38
53522;BME280;39398;48.382;9.802;2023-12-04T21:17:58;92852.78;;;-4.54;84.31
53522;BME280;39398;48.382;9.802;2023-12-04T21:23:01;92838.38;;;-4.63;84.30
53522;BME280;39398;48.382;9.802;2023-12-04T21:28:03;92860.50;;;-4.36;84.14
53522;BME280;39398;48.382;9.802;2023-12-04T21:33:05;92851.34;;;-4.19;84.04
53522;BME280;39398;48.382;9.802;2023-12-04T21:38:08;92860.84;;;-3.94;84.21
53522;BME280;39398;48.382;9.802;2023-12-04T21:43:10;92855.97;;;-3.78;83.17
53522;BME280;39398;48.382;9.802;2023-12-04T21:48:11;92852.94;;;-3.64;83.27
53522;BME280;39398;48.382;9.802;2023-12-04T21:53:15;92858.91;;;-3.55;83.17
53522;BME280;39398;48.382;9.802;2023-12-04T21:58:18;92849.50;;;-3.45;82.87
53522;BME280;39398;48.382;9.802;2023-12-04T22:03:19;92837.72;;;-3.46;82.80
53522;BME280;39398;48.382;9.802;2023-12-04T22:08:22;92859.22;;;-3.40;82.71
53522;BME280;39398;48.382;9.802;2023-12-04T22:13:24;92847.75;;;-3.44;83.44
53522;BME280;39398;48.382;9.802;2023-12-04T22:18:26;92840.06;;;-3.53;84.64
53522;BME280;39398;48.382;9.802;2023-12-04T22:23:29;92831.81;;;-3.64;86.00
53522;BME280;39398;48.382;9.802;2023-12-04T22:28:30;92819.22;;;-3.56;87.34
53522;BME280;39398;48.382;9.802;2023-12-04T22:33:32;92829.66;;;-3.59;86.76
53522;BME280;39398;48.382;9.802;2023-12-04T22:38:35;92846.72;;;-3.52;87.18
53522;BME280;39398;48.382;9.802;2023-12-04T22:43:38;92841.84;;;-3.63;87.51
53522;BME280;39398;48.382;9.802;2023-12-04T22:48:39;92845.19;;;-3.62;87.63
53522;BME280;39398;48.382;9.802;2023-12-04T22:53:42;92846.44;;;-3.48;87.48
53522;BME280;39398;48.382;9.802;2023-12-04T22:58:44;92848.63;;;-3.54;86.44
53522;BME280;39398;48.382;9.802;2023-12-04T23:03:46;92853.53;;;-3.70;87.06
53522;BME280;39398;48.382;9.802;2023-12-04T23:08:49;92850.22;;;-3.80;87.30
53522;BME280;39398;48.382;9.802;2023-12-04T23:13:51;92846.94;;;-3.90;87.50
53522;BME280;39398;48.382;9.802;2023-12-04T23:18:52;92844.75;;;-3.85;87.34
53522;BME280;39398;48.382;9.802;2023-12-04T23:23:55;92840.03;;;-3.98;87.44
53522;BME280;39398;48.382;9.802;2023-12-04T23:28:57;92843.47;;;-3.89;87.95
53522;BME280;39398;48.382;9.802;2023-12-04T23:33:59;92843.19;;;-3.86;87.54
53522;BME280;39398;48.382;9.802;2023-12-04T23:39:02;92841.94;;;-3.82;87.12
53522;BME280;39398;48.382;9.802;2023-12-04T23:44:04;92839.41;;;-3.82;87.44
53522;BME280;39398;48.382;9.802;2023-12-04T23:49:05;92839.19;;;-3.89;87.52
53522;BME280;39398;48.382;9.802;2023-12-04T23:54:09;92837.25;;;-3.77;87.92
53522;BME280;39398;48.382;9.802;2023-12-04T23:59:10;92841.63;;;-3.52;88.07
